sensor_id;sensor_type;location;lat;lon;timestamp;P1;durP1;ratioP1;P2;durP2;ratioP2
34982;SDS011;21187;50.976;13.720;2023-03-01T00:03:36;57.67;;;19.00;;
34982;SDS011;21187;50.976;13.720;2023-03-01T00:08:38;52.75;;;19.50;;
34982;SDS011;21187;50.976;13.720;2023-03-01T00:13:41;50.45;;;19.05;;
34982;SDS011;21187;50.976;13.720;2023-03-01T00:18:43;50.25;;;19.83;;
34982;SDS011;21187;50.976;13.720;2023-03-01T00:23:45;57.25;;;19.52;;
34982;SDS011;21187;50.976;13.720;2023-03-01T00:28:47;45.08;;;18.92;;
34982;SDS011;21187;50.976;13.720;2023-03-01T00:33:52;46.85;;;18.70;;
34982;SDS011;21187;50.976;13.720;2023-03-01T00:38:58;47.05;;;20.17;;
34982;SDS011;21187;50.976;13.720;2023-03-01T00:44:01;53.53;;;19.08;;
34982;SDS011;21187;50.976;13.720;2023-03-01T00:49:03;50.80;;;18.42;;
34982;SDS011;21187;50.976;13.720;2023-03-01T00:54:05;52.03;;;19.85;;
34982;SDS011;21187;50.976;13.720;2023-03-01T00:59:09;64.88;;;22.60;;
34982;SDS011;21187;50.976;13.720;2023-03-01T01:04:11;52.85;;;22.08;;
34982;SDS011;21187;50.976;13.720;2023-03-01T01:09:15;58.05;;;22.25;;
34982;SDS011;21187;50.976;13.720;2023-03-01T01:14:19;58.30;;;22.08;;
34982;SDS011;21187;50.976;13.720;2023-03-01T01:19:20;56.30;;;21.27;;
34982;SDS011;21187;50.976;13.720;2023-03-01T01:24:23;56.03;;;22.25;;
34982;SDS011;21187;50.976;13.720;2023-03-01T01:29:24;59.33;;;22.30;;
34982;SDS011;21187;50.976;13.720;2023-03-01T01:34:26;50.33;;;19.90;;
34982;SDS011;21187;50.976;13.720;2023-03-01T01:39:28;61.05;;;23.15;;
34982;SDS011;21187;50.976;13.720;2023-03-01T01:44:33;71.53;;;25.83;;
34982;SDS011;21187;50.976;13.720;2023-03-01T02:00:05;55.30;;;22.00;;
34982;SDS011;21187;50.976;13.720;2023-03-01T02:05:18;61.40;;;22.95;;
34982;SDS011;21187;50.976;13.720;2023-03-01T02:10:27;63.55;;;23.63;;
34982;SDS011;21187;50.976;13.720;2023-03-01T02:15:33;58.65;;;23.27;;
34982;SDS011;21187;50.976;13.720;2023-03-01T02:31:09;64.50;;;23.70;;
34982;SDS011;21187;50.976;13.720;2023-03-01T02:36:38;67.75;;;25.55;;
34982;SDS011;21187;50.976;13.720;2023-03-01T02:41:45;65.47;;;25.20;;
34982;SDS011;21187;50.976;13.720;2023-03-01T02:46:51;70.57;;;27.75;;
34982;SDS011;21187;50.976;13.720;2023-03-01T02:57:16;69.95;;;27.30;;
34982;SDS011;21187;50.976;13.720;2023-03-01T03:07:49;64.75;;;21.23;;
34982;SDS011;21187;50.976;13.720;2023-03-01T03:12:56;73.68;;;26.10;;
34982;SDS011;21187;50.976;13.720;2023-03-01T03:18:00;64.38;;;25.45;;
34982;SDS011;21187;50.976;13.720;2023-03-01T03:23:02;66.70;;;25.05;;
34982;SDS011;21187;50.976;13.720;2023-03-01T03:28:04;63.63;;;25.77;;
34982;SDS011;21187;50.976;13.720;2023-03-01T03:33:11;74.18;;;26.00;;
34982;SDS011;21187;50.976;13.720;2023-03-01T03:38:15;62.33;;;23.77;;
34982;SDS011;21187;50.976;13.720;2023-03-01T03:43:22;67.72;;;25.25;;
34982;SDS011;21187;50.976;13.720;2023-03-01T03:48:25;59.97;;;22.63;;
34982;SDS011;21187;50.976;13.720;2023-03-01T03:53:28;59.28;;;22.73;;
34982;SDS011;21187;50.976;13.720;2023-03-01T03:58:30;66.50;;;25.17;;
34982;SDS011;21187;50.976;13.720;2023-03-01T04:03:32;57.65;;;22.05;;
34982;SDS011;21187;50.976;13.720;2023-03-01T04:08:36;62.10;;;22.38;;
34982;SDS011;21187;50.976;13.720;2023-03-01T04:13:38;58.13;;;22.67;;
34982;SDS011;21187;50.976;13.720;2023-03-01T04:18:40;57.20;;;21.05;;
34982;SDS011;21187;50.976;13.720;2023-03-01T04:23:42;62.10;;;22.23;;
34982;SDS011;21187;50.976;13.720;2023-03-01T04:28:43;63.63;;;22.90;;
34982;SDS011;21187;50.976;13.720;2023-03-01T04:33:48;61.92;;;24.30;;
34982;SDS011;21187;50.976;13.720;2023-03-01T04:38:55;67.55;;;25.33;;
34982;SDS011;21187;50.976;13.720;2023-03-01T04:43:57;71.65;;;25.70;;
34982;SDS011;21187;50.976;13.720;2023-03-01T04:49:02;66.45;;;24.45;;
34982;SDS011;21187;50.976;13.720;2023-03-01T04:54:04;63.10;;;23.33;;
34982;SDS011;21187;50.976;13.720;2023-03-01T04:59:10;64.50;;;23.08;;
34982;SDS011;21187;50.976;13.720;2023-03-01T05:04:14;73.25;;;24.98;;
34982;SDS011;21187;50.976;13.720;2023-03-01T05:09:15;58.72;;;24.02;;
34982;SDS011;21187;50.976;13.720;2023-03-01T05:14:17;57.08;;;23.20;;
34982;SDS011;21187;50.976;13.720;2023-03-01T05:19:19;72.38;;;25.40;;
34982;SDS011;21187;50.976;13.720;2023-03-01T05:24:24;61.17;;;24.77;;
34982;SDS011;21187;50.976;13.720;2023-03-01T05:29:26;66.18;;;24.70;;
34982;SDS011;21187;50.976;13.720;2023-03-01T05:34:31;65.43;;;27.77;;
34982;SDS011;21187;50.976;13.720;2023-03-01T05:39:34;73.85;;;26.70;;
34982;SDS011;21187;50.976;13.720;2023-03-01T05:44:36;66.32;;;25.73;;
34982;SDS011;21187;50.976;13.720;2023-03-01T05:49:38;74.65;;;26.08;;
34982;SDS011;21187;50.976;13.720;2023-03-01T05:54:40;72.25;;;26.83;;
34982;SDS011;21187;50.976;13.720;2023-03-01T05:59:42;66.00;;;25.90;;
34982;SDS011;21187;50.976;13.720;2023-03-01T06:04:43;63.42;;;25.67;;
34982;SDS011;21187;50.976;13.720;2023-03-01T06:09:45;71.68;;;25.55;;
34982;SDS011;21187;50.976;13.720;2023-03-01T06:14:47;75.93;;;26.50;;
34982;SDS011;21187;50.976;13.720;2023-03-01T06:25:13;71.97;;;24.95;;
34982;SDS011;21187;50.976;13.720;2023-03-01T06:30:17;84.63;;;26.40;;
34982;SDS011;21187;50.976;13.720;2023-03-01T06:35:20;73.57;;;26.85;;
34982;SDS011;21187;50.976;13.720;2023-03-01T06:40:22;77.18;;;28.27;;
34982;SDS011;21187;50.976;13.720;2023-03-01T06:45:24;75.70;;;25.55;;
34982;SDS011;21187;50.976;13.720;2023-03-01T06:50:26;69.45;;;27.90;;
34982;SDS011;21187;50.976;13.720;2023-03-01T06:55:28;70.65;;;27.83;;
34982;SDS011;21187;50.976;13.720;2023-03-01T07:00:30;80.07;;;27.90;;
34982;SDS011;21187;50.976;13.720;2023-03-01T07:05:32;79.45;;;30.63;;
34982;SDS011;21187;50.976;13.720;2023-03-01T07:10:35;94.93;;;35.55;;
34982;SDS011;21187;50.976;13.720;2023-03-01T07:15:37;105.90;;;37.85;;
34982;SDS011;21187;50.976;13.720;2023-03-01T07:20:38;94.13;;;35.28;;
34982;SDS011;21187;50.976;13.720;2023-03-01T07:25:40;84.97;;;30.73;;
34982;SDS011;21187;50.976;13.720;2023-03-01T07:30:42;68.75;;;27.25;;
34982;SDS011;21187;50.976;13.720;2023-03-01T07:35:44;58.83;;;24.70;;
34982;SDS011;21187;50.976;13.720;2023-03-01T07:40:46;64.68;;;25.30;;
34982;SDS011;21187;50.976;13.720;2023-03-01T07:45:48;65.85;;;25.48;;
34982;SDS011;21187;50.976;13.720;2023-03-01T07:50:49;54.78;;;19.70;;
34982;SDS011;21187;50.976;13.720;2023-03-01T07:56:07;46.47;;;19.00;;
34982;SDS011;21187;50.976;13.720;2023-03-01T08:01:15;48.45;;;20.35;;
34982;SDS011;21187;50.976;13.720;2023-03-01T08:06:19;46.03;;;20.50;;
34982;SDS011;21187;50.976;13.720;2023-03-01T08:11:20;51.20;;;20.85;;
34982;SDS011;21187;50.976;13.720;2023-03-01T08:21:40;44.67;;;19.40;;
34982;SDS011;21187;50.976;13.720;2023-03-01T08:26:42;44.35;;;17.90;;
34982;SDS011;21187;50.976;13.720;2023-03-01T08:31:44;52.00;;;18.08;;
34982;SDS011;21187;50.976;13.720;2023-03-01T08:36:46;42.38;;;18.00;;
34982;SDS011;21187;50.976;13.720;2023-03-01T08:41:48;44.30;;;18.60;;
34982;SDS011;21187;50.976;13.720;2023-03-01T08:46:50;44.30;;;18.02;;
34982;SDS011;21187;50.976;13.720;2023-03-01T08:51:53;40.63;;;17.35;;
34982;SDS011;21187;50.976;13.720;2023-03-01T08:56:55;58.85;;;18.40;;
34982;SDS011;21187;50.976;13.720;2023-03-01T09:02:00;54.22;;;20.45;;
34982;SDS011;21187;50.976;13.720;2023-03-01T09:07:02;38.65;;;16.85;;
34982;SDS011;21187;50.976;13.720;2023-03-01T09:12:04;46.15;;;19.33;;
34982;SDS011;21187;50.976;13.720;2023-03-01T09:17:07;41.63;;;19.23;;
34982;SDS011;21187;50.976;13.720;2023-03-01T09:22:09;42.58;;;19.10;;
34982;SDS011;21187;50.976;13.720;2023-03-01T09:27:11;45.47;;;19.88;;
34982;SDS011;21187;50.976;13.720;2023-03-01T09:32:14;49.33;;;17.88;;
34982;SDS011;21187;50.976;13.720;2023-03-01T09:37:16;43.75;;;18.67;;
34982;SDS011;21187;50.976;13.720;2023-03-01T09:42:18;48.05;;;18.45;;
34982;SDS011;21187;50.976;13.720;2023-03-01T09:47:21;42.45;;;19.33;;
34982;SDS011;21187;50.976;13.720;2023-03-01T10:02:56;44.35;;;18.40;;
34982;SDS011;21187;50.976;13.720;2023-03-01T10:18:58;38.63;;;15.75;;
34982;SDS011;21187;50.976;13.720;2023-03-01T10:24:16;39.57;;;17.60;;
34982;SDS011;21187;50.976;13.720;2023-03-01T10:29:43;39.90;;;16.00;;
34982;SDS011;21187;50.976;13.720;2023-03-01T10:34:49;43.70;;;17.35;;
34982;SDS011;21187;50.976;13.720;2023-03-01T10:40:02;49.97;;;17.38;;
34982;SDS011;21187;50.976;13.720;2023-03-01T10:45:15;43.70;;;17.45;;
34982;SDS011;21187;50.976;13.720;2023-03-01T10:50:28;38.90;;;16.73;;
34982;SDS011;21187;50.976;13.720;2023-03-01T10:55:31;44.78;;;18.30;;
34982;SDS011;21187;50.976;13.720;2023-03-01T11:00:45;36.88;;;15.70;;
34982;SDS011;21187;50.976;13.720;2023-03-01T11:05:59;39.65;;;17.17;;
34982;SDS011;21187;50.976;13.720;2023-03-01T11:11:31;42.78;;;16.33;;
34982;SDS011;21187;50.976;13.720;2023-03-01T11:16:35;39.75;;;16.77;;
34982;SDS011;21187;50.976;13.720;2023-03-01T11:21:41;40.78;;;15.93;;
34982;SDS011;21187;50.976;13.720;2023-03-01T11:26:50;41.05;;;16.10;;
34982;SDS011;21187;50.976;13.720;2023-03-01T11:31:56;40.88;;;16.23;;
34982;SDS011;21187;50.976;13.720;2023-03-01T11:37:01;37.00;;;15.82;;
34982;SDS011;21187;50.976;13.720;2023-03-01T11:42:20;44.55;;;15.65;;
34982;SDS011;21187;50.976;13.720;2023-03-01T11:47:45;37.70;;;15.07;;
34982;SDS011;21187;50.976;13.720;2023-03-01T12:03:33;39.08;;;14.57;;
34982;SDS011;21187;50.976;13.720;2023-03-01T12:08:45;28.67;;;11.65;;
34982;SDS011;21187;50.976;13.720;2023-03-01T12:14:03;32.13;;;13.95;;
34982;SDS011;21187;50.976;13.720;2023-03-01T12:30:10;30.15;;;12.82;;
34982;SDS011;21187;50.976;13.720;2023-03-01T12:51:51;31.10;;;12.55;;
34982;SDS011;21187;50.976;13.720;2023-03-01T12:57:09;29.85;;;12.75;;
34982;SDS011;21187;50.976;13.720;2023-03-01T13:02:21;31.25;;;13.70;;
34982;SDS011;21187;50.976;13.720;2023-03-01T13:07:37;34.28;;;15.05;;
34982;SDS011;21187;50.976;13.720;2023-03-01T13:12:51;54.95;;;15.45;;
34982;SDS011;21187;50.976;13.720;2023-03-01T13:18:03;30.42;;;13.20;;
34982;SDS011;21187;50.976;13.720;2023-03-01T13:23:11;35.80;;;14.60;;
34982;SDS011;21187;50.976;13.720;2023-03-01T13:33:37;32.10;;;14.85;;
34982;SDS011;21187;50.976;13.720;2023-03-01T13:38:55;35.10;;;15.20;;
34982;SDS011;21187;50.976;13.720;2023-03-01T13:43:58;33.08;;;13.27;;
34982;SDS011;21187;50.976;13.720;2023-03-01T13:49:00;30.90;;;13.52;;
34982;SDS011;21187;50.976;13.720;2023-03-01T13:54:02;36.78;;;15.13;;
34982;SDS011;21187;50.976;13.720;2023-03-01T13:59:06;33.40;;;13.27;;
34982;SDS011;21187;50.976;13.720;2023-03-01T14:09:33;30.75;;;13.45;;
34982;SDS011;21187;50.976;13.720;2023-03-01T14:20:10;32.15;;;13.93;;
34982;SDS011;21187;50.976;13.720;2023-03-01T14:25:32;27.67;;;13.68;;
34982;SDS011;21187;50.976;13.720;2023-03-01T14:41:08;30.23;;;13.77;;
34982;SDS011;21187;50.976;13.720;2023-03-01T14:46:20;28.92;;;13.57;;
34982;SDS011;21187;50.976;13.720;2023-03-01T14:51:28;29.70;;;13.40;;
34982;SDS011;21187;50.976;13.720;2023-03-01T14:56:37;45.83;;;17.73;;
34982;SDS011;21187;50.976;13.720;2023-03-01T15:01:46;35.08;;;14.60;;
34982;SDS011;21187;50.976;13.720;2023-03-01T15:06:53;39.50;;;15.10;;
34982;SDS011;21187;50.976;13.720;2023-03-01T15:11:56;40.72;;;14.65;;
34982;SDS011;21187;50.976;13.720;2023-03-01T15:16:58;44.05;;;17.08;;
34982;SDS011;21187;50.976;13.720;2023-03-01T15:22:00;47.53;;;18.02;;
34982;SDS011;21187;50.976;13.720;2023-03-01T15:27:17;44.95;;;17.42;;
34982;SDS011;21187;50.976;13.720;2023-03-01T15:32:25;35.17;;;14.93;;
34982;SDS011;21187;50.976;13.720;2023-03-01T15:37:46;37.65;;;14.65;;
34982;SDS011;21187;50.976;13.720;2023-03-01T15:42:49;38.75;;;15.07;;
34982;SDS011;21187;50.976;13.720;2023-03-01T15:47:55;38.05;;;14.13;;
34982;SDS011;21187;50.976;13.720;2023-03-01T15:53:00;34.05;;;15.23;;
34982;SDS011;21187;50.976;13.720;2023-03-01T16:03:08;34.50;;;15.15;;
34982;SDS011;21187;50.976;13.720;2023-03-01T16:08:14;32.30;;;14.35;;
34982;SDS011;21187;50.976;13.720;2023-03-01T16:13:16;39.85;;;15.18;;
34982;SDS011;21187;50.976;13.720;2023-03-01T16:18:22;46.40;;;18.27;;
34982;SDS011;21187;50.976;13.720;2023-03-01T16:23:24;56.67;;;20.23;;
34982;SDS011;21187;50.976;13.720;2023-03-01T16:28:27;49.78;;;18.88;;
34982;SDS011;21187;50.976;13.720;2023-03-01T16:33:30;35.70;;;14.35;;
34982;SDS011;21187;50.976;13.720;2023-03-01T16:38:34;39.50;;;15.82;;
34982;SDS011;21187;50.976;13.720;2023-03-01T16:43:36;41.08;;;16.92;;
34982;SDS011;21187;50.976;13.720;2023-03-01T16:48:38;45.92;;;16.92;;
34982;SDS011;21187;50.976;13.720;2023-03-01T16:53:41;49.15;;;17.92;;
34982;SDS011;21187;50.976;13.720;2023-03-01T16:58:43;52.28;;;21.25;;
34982;SDS011;21187;50.976;13.720;2023-03-01T17:03:46;70.85;;;25.63;;
34982;SDS011;21187;50.976;13.720;2023-03-01T17:08:48;81.35;;;29.40;;
34982;SDS011;21187;50.976;13.720;2023-03-01T17:13:51;89.55;;;30.00;;
34982;SDS011;21187;50.976;13.720;2023-03-01T17:18:53;105.95;;;39.70;;
34982;SDS011;21187;50.976;13.720;2023-03-01T17:23:55;89.30;;;32.47;;
34982;SDS011;21187;50.976;13.720;2023-03-01T17:28:58;88.70;;;33.50;;
34982;SDS011;21187;50.976;13.720;2023-03-01T17:39:36;63.05;;;23.95;;
34982;SDS011;21187;50.976;13.720;2023-03-01T17:44:38;55.13;;;22.42;;
34982;SDS011;21187;50.976;13.720;2023-03-01T17:49:42;67.20;;;24.52;;
34982;SDS011;21187;50.976;13.720;2023-03-01T17:54:43;64.07;;;24.20;;
34982;SDS011;21187;50.976;13.720;2023-03-01T17:59:45;56.65;;;22.17;;
34982;SDS011;21187;50.976;13.720;2023-03-01T18:04:47;57.05;;;22.42;;
34982;SDS011;21187;50.976;13.720;2023-03-01T18:09:49;53.17;;;22.50;;
34982;SDS011;21187;50.976;13.720;2023-03-01T18:14:51;73.28;;;26.05;;
34982;SDS011;21187;50.976;13.720;2023-03-01T18:19:55;68.88;;;24.35;;
34982;SDS011;21187;50.976;13.720;2023-03-01T18:24:57;97.53;;;31.60;;
34982;SDS011;21187;50.976;13.720;2023-03-01T18:29:59;121.65;;;39.53;;
34982;SDS011;21187;50.976;13.720;2023-03-01T18:35:01;109.32;;;36.25;;
34982;SDS011;21187;50.976;13.720;2023-03-01T18:40:03;119.53;;;36.08;;
34982;SDS011;21187;50.976;13.720;2023-03-01T18:45:05;92.30;;;31.60;;
34982;SDS011;21187;50.976;13.720;2023-03-01T18:50:08;72.63;;;26.23;;
34982;SDS011;21187;50.976;13.720;2023-03-01T18:55:10;71.43;;;24.85;;
34982;SDS011;21187;50.976;13.720;2023-03-01T19:00:12;57.67;;;21.55;;
34982;SDS011;21187;50.976;13.720;2023-03-01T19:05:14;49.80;;;19.17;;
34982;SDS011;21187;50.976;13.720;2023-03-01T19:10:17;58.35;;;18.00;;
34982;SDS011;21187;50.976;13.720;2023-03-01T19:15:20;45.33;;;17.23;;
34982;SDS011;21187;50.976;13.720;2023-03-01T19:20:23;39.53;;;13.80;;
34982;SDS011;21187;50.976;13.720;2023-03-01T19:25:25;38.97;;;14.23;;
34982;SDS011;21187;50.976;13.720;2023-03-01T19:30:27;39.60;;;15.68;;
34982;SDS011;21187;50.976;13.720;2023-03-01T19:35:28;41.92;;;16.23;;
34982;SDS011;21187;50.976;13.720;2023-03-01T19:40:30;47.55;;;16.67;;
34982;SDS011;21187;50.976;13.720;2023-03-01T19:45:32;43.90;;;18.00;;
34982;SDS011;21187;50.976;13.720;2023-03-01T19:50:34;68.25;;;26.40;;
34982;SDS011;21187;50.976;13.720;2023-03-01T19:55:36;64.65;;;24.98;;
34982;SDS011;21187;50.976;13.720;2023-03-01T20:00:39;62.53;;;23.75;;
34982;SDS011;21187;50.976;13.720;2023-03-01T20:05:44;63.40;;;24.90;;
34982;SDS011;21187;50.976;13.720;2023-03-01T20:10:46;60.55;;;22.55;;
34982;SDS011;21187;50.976;13.720;2023-03-01T20:15:48;63.65;;;22.42;;
34982;SDS011;21187;50.976;13.720;2023-03-01T20:20:50;55.95;;;20.80;;
34982;SDS011;21187;50.976;13.720;2023-03-01T20:26:01;41.28;;;16.25;;
34982;SDS011;21187;50.976;13.720;2023-03-01T20:31:05;41.60;;;16.15;;
34982;SDS011;21187;50.976;13.720;2023-03-01T20:36:09;35.75;;;14.43;;
34982;SDS011;21187;50.976;13.720;2023-03-01T20:46:39;36.58;;;15.43;;
34982;SDS011;21187;50.976;13.720;2023-03-01T20:51:41;41.95;;;15.88;;
34982;SDS011;21187;50.976;13.720;2023-03-01T20:56:46;43.40;;;15.93;;
34982;SDS011;21187;50.976;13.720;2023-03-01T21:01:48;43.47;;;15.75;;
34982;SDS011;21187;50.976;13.720;2023-03-01T21:06:50;43.20;;;15.75;;
34982;SDS011;21187;50.976;13.720;2023-03-01T21:11:52;40.85;;;15.00;;
34982;SDS011;21187;50.976;13.720;2023-03-01T21:16:54;45.08;;;17.85;;
34982;SDS011;21187;50.976;13.720;2023-03-01T21:21:56;42.53;;;18.55;;
34982;SDS011;21187;50.976;13.720;2023-03-01T21:26:57;42.42;;;17.42;;
34982;SDS011;21187;50.976;13.720;2023-03-01T21:31:59;43.70;;;17.70;;
34982;SDS011;21187;50.976;13.720;2023-03-01T21:37:05;51.67;;;18.95;;
34982;SDS011;21187;50.976;13.720;2023-03-01T21:42:07;37.22;;;15.40;;
34982;SDS011;21187;50.976;13.720;2023-03-01T21:47:09;41.85;;;15.55;;
34982;SDS011;21187;50.976;13.720;2023-03-01T21:52:11;42.20;;;16.67;;
34982;SDS011;21187;50.976;13.720;2023-03-01T21:57:17;45.33;;;16.85;;
34982;SDS011;21187;50.976;13.720;2023-03-01T22:02:19;52.47;;;17.40;;
34982;SDS011;21187;50.976;13.720;2023-03-01T22:07:21;41.15;;;16.42;;
34982;SDS011;21187;50.976;13.720;2023-03-01T22:12:23;44.05;;;16.80;;
34982;SDS011;21187;50.976;13.720;2023-03-01T22:17:25;44.45;;;16.42;;
34982;SDS011;21187;50.976;13.720;2023-03-01T22:22:26;41.28;;;16.40;;
34982;SDS011;21187;50.976;13.720;2023-03-01T22:27:28;42.60;;;16.10;;
34982;SDS011;21187;50.976;13.720;2023-03-01T22:32:31;45.63;;;16.85;;
34982;SDS011;21187;50.976;13.720;2023-03-01T22:37:33;48.25;;;16.52;;
34982;SDS011;21187;50.976;13.720;2023-03-01T22:42:35;50.65;;;17.90;;
34982;SDS011;21187;50.976;13.720;2023-03-01T22:47:37;54.80;;;19.45;;
34982;SDS011;21187;50.976;13.720;2023-03-01T22:52:38;46.67;;;18.20;;
34982;SDS011;21187;50.976;13.720;2023-03-01T22:57:40;53.42;;;20.42;;
34982;SDS011;21187;50.976;13.720;2023-03-01T23:02:42;53.70;;;20.30;;
34982;SDS011;21187;50.976;13.720;2023-03-01T23:07:44;47.17;;;18.35;;
34982;SDS011;21187;50.976;13.720;2023-03-01T23:12:47;44.40;;;18.17;;
34982;SDS011;21187;50.976;13.720;2023-03-01T23:17:49;52.13;;;20.13;;
34982;SDS011;21187;50.976;13.720;2023-03-01T23:22:50;45.92;;;18.95;;
34982;SDS011;21187;50.976;13.720;2023-03-01T23:27:53;47.83;;;18.45;;
34982;SDS011;21187;50.976;13.720;2023-03-01T23:32:55;47.65;;;19.17;;
34982;SDS011;21187;50.976;13.720;2023-03-01T23:38:00;46.42;;;17.70;;
34982;SDS011;21187;50.976;13.720;2023-03-01T23:43:02;46.92;;;18.08;;
34982;SDS011;21187;50.976;13.720;2023-03-01T23:48:04;42.88;;;17.83;;
34982;SDS011;21187;50.976;13.720;2023-03-01T23:53:07;45.63;;;16.35;;
34982;SDS011;21187;50.976;13.720;2023-03-01T23:58:10;38.78;;;14.70;;
